Akron, New York
Current Conditions -  °F | °C
As of 2:54 PM on Thursday 30 Oct 2014 (Local Time) from KBUF Reporting Station
Broken Clouds Broken Clouds  
Wind Chill: 44°   Ceiling: 4200
Heat Index: 48°   Visibility: 10mi
Dew Point: 34°   Wind: 9mph
Humidity: 58%   Direction: 280°W
Pressure: 30.04"   Gusts: NA
Location:  43.02°N, 78.5°W
Report Text: KBUF 301854Z 28008KT 10SM FEW031 BKN042 BKN260 09/01 A3004 RMK AO2 SLP178 T00890011
Loading
Personal Weather Stations






























Interactive Weather Map New forecast layout! Learn more

10-Day Weather Forecast

Advertisements
Track Severe Weather on mobile